Time;durP1;ratioP1;P1;durP2;ratioP2;P2;SDS_P1;SDS_P2;PMS_P1;PMS_P2;Temp;Humidity;BMP_temperature;BMP_pressure;BME280_temperature;BME280_humidity;BME280_pressure;Samples;Min_cycle;Max_cycle;Signal;HPM_P1;HPM_P2
2022/05/31 00:01:15;;;;;;;10.20;7.28;;;11.50;99.90;;;;;;5017505;28;20089;-65
2022/05/31 00:03:41;;;;;;;8.77;6.95;;;11.50;99.90;;;;;;5017590;28;20064;-65
2022/05/31 00:06:08;;;;;;;11.18;7.53;;;11.50;99.90;;;;;;5017554;28;20053;-65
2022/05/31 00:08:34;;;;;;;7.82;7.13;;;11.50;99.90;;;;;;5017354;28;20041;-65
2022/05/31 00:11:00;;;;;;;8.60;7.43;;;11.50;99.90;;;;;;5018147;28;20294;-65
2022/05/31 00:13:29;;;;;;;7.82;6.82;;;11.50;99.90;;;;;;5018127;28;20057;-65
2022/05/31 00:15:55;;;;;;;8.57;6.78;;;11.50;99.90;;;;;;5018046;28;20049;-65
2022/05/31 00:18:21;;;;;;;9.45;7.22;;;11.50;99.90;;;;;;5018050;28;20306;-64
2022/05/31 00:20:47;;;;;;;8.02;7.07;;;11.60;99.90;;;;;;5017199;28;20386;-64
2022/05/31 00:23:13;;;;;;;8.55;7.63;;;11.60;99.90;;;;;;5017909;28;20049;-64
2022/05/31 00:25:39;;;;;;;8.88;6.40;;;11.70;99.90;;;;;;5017873;28;20030;-64
2022/05/31 00:28:06;;;;;;;7.15;6.35;;;11.70;99.90;;;;;;5017878;28;20030;-64
2022/05/31 00:30:32;;;;;;;8.18;6.57;;;11.70;99.90;;;;;;5017106;28;20302;-64
2022/05/31 00:32:59;;;;;;;7.40;6.57;;;11.70;99.90;;;;;;5017012;28;20064;-64
2022/05/31 00:35:29;;;;;;;7.40;6.35;;;11.80;99.90;;;;;;5017779;28;20306;-64
2022/05/31 00:37:57;;;;;;;8.48;6.80;;;11.80;99.90;;;;;;5017692;28;20025;-64
2022/05/31 00:40:25;;;;;;;7.45;6.38;;;11.80;99.90;;;;;;5017027;28;20098;-65
2022/05/31 00:43:00;;;;;;;9.32;7.18;;;11.90;99.90;;;;;;5017652;28;20089;-65
2022/05/31 00:45:49;;;;;;;9.93;7.65;;;11.90;99.90;;;;;;5016900;28;20034;-64
2022/05/31 00:48:46;;;;;;;8.00;6.85;;;11.90;99.90;;;;;;5018140;28;20069;-64
2022/05/31 00:51:16;;;;;;;11.13;7.57;;;11.80;99.90;;;;;;5008097;28;20053;-65
2022/05/31 00:54:00;;;;;;;13.10;7.78;;;11.80;99.90;;;;;;5017523;28;20028;-65
2022/05/31 00:56:29;;;;;;;9.13;7.18;;;12.00;99.90;;;;;;5016739;28;20018;-65
2022/05/31 00:59:14;;;;;;;11.80;7.22;;;12.00;99.90;;;;;;5017354;28;20048;-65
2022/05/31 01:01:42;;;;;;;8.93;7.53;;;12.00;99.90;;;;;;5015521;28;20045;-64
2022/05/31 01:04:10;;;;;;;10.50;6.88;;;12.00;99.90;;;;;;5017213;28;20084;-64
2022/05/31 01:06:36;;;;;;;8.27;7.07;;;11.90;99.90;;;;;;5017263;28;20064;-65
2022/05/31 01:09:03;;;;;;;10.23;7.13;;;11.90;99.90;;;;;;5017216;28;20046;-64
2022/05/31 01:11:35;;;;;;;10.35;7.57;;;11.90;99.90;;;;;;5017265;28;20104;-64
2022/05/31 01:14:03;;;;;;;8.80;7.40;;;11.80;99.90;;;;;;5017275;28;20339;-64
2022/05/31 01:17:12;;;;;;;8.73;7.80;;;11.90;99.90;;;;;;4976799;28;20046;-65
2022/05/31 01:20:19;;;;;;;10.07;7.20;;;11.80;99.90;;;;;;4996119;28;20117;-64
2022/05/31 01:23:00;;;;;;;9.52;7.30;;;11.80;99.90;;;;;;4980135;28;20429;-64
2022/05/31 01:25:56;;;;;;;8.75;7.47;;;11.80;99.90;;;;;;5001375;28;20066;-67
2022/05/31 01:28:33;;;;;;;9.07;7.40;;;11.80;99.90;;;;;;5016284;28;20058;-65
2022/05/31 01:31:11;;;;;;;9.95;6.85;;;11.80;99.90;;;;;;5017024;28;20096;-65
2022/05/31 01:33:58;;;;;;;9.88;7.63;;;11.80;99.90;;;;;;5016382;28;20064;-66
2022/05/31 01:36:59;;;;;;;8.18;7.30;;;11.70;99.90;;;;;;5016916;28;20068;-67
2022/05/31 01:39:34;;;;;;;8.95;7.68;;;11.70;99.90;;;;;;4976489;28;20053;-65
2022/05/31 01:42:05;;;;;;;10.15;7.28;;;11.70;99.90;;;;;;5011265;28;20042;-64
2022/05/31 01:44:35;;;;;;;9.07;7.30;;;11.60;99.90;;;;;;5016930;28;20100;-65
2022/05/31 01:47:03;;;;;;;8.88;7.72;;;11.60;99.90;;;;;;5016820;28;20084;-65
2022/05/31 01:49:38;;;;;;;9.27;7.65;;;11.50;99.90;;;;;;5016972;28;20034;-65
2022/05/31 01:52:05;;;;;;;8.30;7.50;;;11.50;99.90;;;;;;5016026;28;20026;-64
2022/05/31 01:54:34;;;;;;;10.35;7.63;;;11.50;99.90;;;;;;5016497;28;20029;-65
2022/05/31 01:57:02;;;;;;;8.15;7.35;;;11.50;99.90;;;;;;5016693;28;20030;-64
2022/05/31 01:59:34;;;;;;;9.57;7.75;;;11.50;99.90;;;;;;5015976;28;20088;-64
2022/05/31 02:02:02;;;;;;;10.27;7.57;;;11.50;99.90;;;;;;5016545;28;20060;-64
2022/05/31 02:04:28;;;;;;;8.52;7.40;;;11.50;99.90;;;;;;5015934;28;20129;-64
2022/05/31 02:07:12;;;;;;;8.88;7.53;;;11.40;99.90;;;;;;5016638;28;20034;-64
2022/05/31 02:09:42;;;;;;;9.80;7.18;;;11.40;99.90;;;;;;5015842;28;20041;-65
2022/05/31 02:12:13;;;;;;;10.10;7.53;;;11.30;99.90;;;;;;5016470;28;20113;-65
2022/05/31 02:14:48;;;;;;;11.38;7.05;;;11.30;99.90;;;;;;5019764;28;20095;-64
2022/05/31 02:17:16;;;;;;;11.60;7.47;;;11.20;99.90;;;;;;5019533;28;20029;-64
2022/05/31 02:20:00;;;;;;;8.38;7.45;;;11.20;99.90;;;;;;5020720;28;20450;-64
2022/05/31 02:22:31;;;;;;;7.90;6.95;;;11.20;99.90;;;;;;5019392;28;20453;-64
2022/05/31 02:24:57;;;;;;;8.45;7.38;;;11.20;99.90;;;;;;5003151;28;20124;-64
2022/05/31 02:27:23;;;;;;;8.15;7.35;;;11.20;99.90;;;;;;4986868;28;20043;-65
2022/05/31 02:29:49;;;;;;;8.38;7.45;;;11.20;99.90;;;;;;5019197;28;20294;-64
2022/05/31 02:32:16;;;;;;;9.00;7.13;;;11.20;99.90;;;;;;5020013;28;20036;-64
2022/05/31 02:34:48;;;;;;;10.68;7.00;;;11.20;99.90;;;;;;5020556;28;20038;-64
2022/05/31 02:37:18;;;;;;;8.20;7.38;;;11.20;99.90;;;;;;5019159;28;20049;-65
2022/05/31 02:39:44;;;;;;;11.18;7.15;;;11.20;99.90;;;;;;5019870;28;20030;-64
2022/05/31 02:42:10;;;;;;;9.85;7.18;;;11.30;99.90;;;;;;5019075;28;20096;-65
2022/05/31 02:44:37;;;;;;;8.10;7.25;;;11.30;99.90;;;;;;5002762;28;20049;-65
2022/05/31 02:47:04;;;;;;;8.77;7.35;;;11.30;99.90;;;;;;5019765;28;20034;-65
2022/05/31 02:49:30;;;;;;;9.45;7.57;;;11.30;99.90;;;;;;5018844;28;20041;-65
2022/05/31 02:51:58;;;;;;;9.95;7.00;;;11.40;99.90;;;;;;5019631;28;20378;-65
2022/05/31 02:54:25;;;;;;;9.30;7.22;;;11.40;99.90;;;;;;5018918;28;20026;-65
2022/05/31 02:57:10;;;;;;;7.32;6.47;;;11.40;99.90;;;;;;5019642;28;20101;-65
2022/05/31 02:59:55;;;;;;;8.52;7.10;;;11.30;99.90;;;;;;5019888;28;20095;-65
2022/05/31 03:02:39;;;;;;;7.97;6.50;;;11.30;99.90;;;;;;5019531;28;20153;-64
2022/05/31 03:05:32;;;;;;;9.70;6.90;;;11.40;99.90;;;;;;5004325;28;20121;-64
2022/05/31 03:08:18;;;;;;;8.27;6.53;;;11.30;99.90;;;;;;5020008;28;20268;-63
2022/05/31 03:11:09;;;;;;;7.18;6.38;;;11.40;99.90;;;;;;5018638;28;20121;-64
2022/05/31 03:13:36;;;;;;;10.20;6.43;;;11.30;99.90;;;;;;5018555;28;20026;-64
2022/05/31 03:16:03;;;;;;;7.80;6.50;;;11.30;99.90;;;;;;5018544;28;20409;-64
2022/05/31 03:18:37;;;;;;;7.70;6.53;;;11.30;99.90;;;;;;5019098;28;20042;-64
2022/05/31 03:21:12;;;;;;;9.30;6.78;;;11.30;99.90;;;;;;5018333;28;20040;-64
2022/05/31 03:23:52;;;;;;;10.57;6.93;;;11.30;99.90;;;;;;5018296;28;20034;-64
2022/05/31 03:26:20;;;;;;;9.07;6.32;;;11.30;99.90;;;;;;5018208;28;20104;-64
2022/05/31 03:28:46;;;;;;;7.57;6.60;;;11.30;99.90;;;;;;5018158;28;20040;-64
2022/05/31 03:31:13;;;;;;;8.05;6.78;;;11.30;99.90;;;;;;5018312;28;20034;-64
2022/05/31 03:33:39;;;;;;;8.43;6.68;;;11.40;99.90;;;;;;5018854;28;20060;-64
2022/05/31 03:36:06;;;;;;;11.70;7.28;;;11.40;99.90;;;;;;5018010;28;20026;-64
2022/05/31 03:38:42;;;;;;;8.45;6.72;;;11.30;99.90;;;;;;5003108;28;20061;-64
2022/05/31 03:41:10;;;;;;;10.75;6.80;;;11.50;99.90;;;;;;5018592;28;20049;-65
2022/05/31 03:43:43;;;;;;;10.02;6.75;;;11.50;99.90;;;;;;5018144;28;20138;-64
2022/05/31 03:46:31;;;;;;;9.60;6.93;;;11.40;99.90;;;;;;5012979;28;20046;-64
2022/05/31 03:48:59;;;;;;;7.45;6.75;;;11.40;99.90;;;;;;5018877;28;20065;-65
2022/05/31 03:51:27;;;;;;;8.68;6.68;;;11.40;99.90;;;;;;5018558;28;20459;-65
2022/05/31 03:53:58;;;;;;;8.60;6.75;;;11.30;99.90;;;;;;5001915;28;20103;-65
2022/05/31 03:56:44;;;;;;;9.45;6.93;;;11.30;99.90;;;;;;5017498;28;20144;-65
2022/05/31 03:59:10;;;;;;;10.73;7.18;;;11.30;99.90;;;;;;5017221;28;20053;-65
2022/05/31 04:01:36;;;;;;;8.20;6.55;;;11.30;99.90;;;;;;5000839;28;20087;-64
2022/05/31 04:04:03;;;;;;;9.77;6.93;;;11.40;99.90;;;;;;5017525;28;20038;-65
2022/05/31 04:06:35;;;;;;;9.80;7.13;;;11.40;99.90;;;;;;5017361;28;20103;-65
2022/05/31 04:09:01;;;;;;;7.60;6.85;;;11.60;99.90;;;;;;5017159;28;20053;-64
2022/05/31 04:11:28;;;;;;;7.57;6.40;;;11.70;99.90;;;;;;5017344;28;20100;-64
2022/05/31 04:13:57;;;;;;;10.35;7.45;;;11.70;99.90;;;;;;5017409;28;20037;-65
2022/05/31 04:16:44;;;;;;;8.75;6.40;;;11.70;99.90;;;;;;4990465;28;20120;-64
2022/05/31 04:19:10;;;;;;;8.95;7.07;;;11.80;99.90;;;;;;5000986;28;20137;-64
2022/05/31 04:21:37;;;;;;;9.52;7.32;;;11.80;99.90;;;;;;5000839;28;20033;-64
2022/05/31 04:24:08;;;;;;;9.77;6.88;;;11.90;99.90;;;;;;5018015;28;20357;-65
2022/05/31 04:26:47;;;;;;;8.10;7.28;;;11.80;99.90;;;;;;5018045;28;20305;-64
2022/05/31 04:29:34;;;;;;;7.22;6.47;;;11.90;99.90;;;;;;5018054;28;20048;-64
2022/05/31 04:32:19;;;;;;;8.57;6.43;;;11.90;99.90;;;;;;5017946;28;20444;-65
2022/05/31 04:35:01;;;;;;;8.90;7.15;;;11.90;99.90;;;;;;5017608;28;20057;-64
2022/05/31 04:37:28;;;;;;;8.60;6.85;;;11.90;99.90;;;;;;5016864;28;20040;-64
2022/05/31 04:40:16;;;;;;;9.25;7.25;;;12.00;99.90;;;;;;5003536;28;20255;-64
2022/05/31 04:42:42;;;;;;;9.63;7.20;;;12.00;99.90;;;;;;5000950;28;20067;-65
2022/05/31 04:45:14;;;;;;;7.80;6.85;;;12.10;99.90;;;;;;5016741;28;20452;-65
2022/05/31 04:47:39;;;;;;;10.10;6.60;;;12.10;99.90;;;;;;4984247;28;20040;-65
2022/05/31 04:50:07;;;;;;;7.45;6.43;;;12.10;99.90;;;;;;5016599;28;20048;-64
2022/05/31 04:52:36;;;;;;;7.75;6.28;;;12.20;99.90;;;;;;5000839;28;20113;-66
2022/05/31 04:55:03;;;;;;;7.53;6.53;;;12.30;99.90;;;;;;5016654;28;20044;-65
2022/05/31 04:57:35;;;;;;;7.40;6.57;;;12.30;99.90;;;;;;5016658;28;20052;-64
2022/05/31 05:00:03;;;;;;;10.70;7.13;;;12.40;99.90;;;;;;5016661;28;20037;-64
2022/05/31 05:02:31;;;;;;;7.60;6.00;;;12.40;99.90;;;;;;5016604;28;20060;-64
2022/05/31 05:05:03;;;;;;;8.50;6.82;;;12.50;99.90;;;;;;5016425;28;20037;-64
2022/05/31 05:07:39;;;;;;;10.02;6.35;;;12.40;99.90;;;;;;4986772;28;20402;-64
2022/05/31 05:10:06;;;;;;;8.23;6.35;;;12.30;99.90;;;;;;5016339;28;20361;-65
2022/05/31 05:12:40;;;;;;;8.13;6.18;;;12.50;99.90;;;;;;5016443;28;20060;-65
2022/05/31 05:15:22;;;;;;;9.00;6.07;;;12.70;99.90;;;;;;5016379;28;20030;-64
2022/05/31 05:17:47;;;;;;;10.40;6.45;;;12.80;99.90;;;;;;5016308;28;20026;-64
2022/05/31 05:20:13;;;;;;;8.23;6.28;;;13.00;99.90;;;;;;5017100;28;20402;-64
2022/05/31 05:22:39;;;;;;;7.95;6.03;;;12.90;99.90;;;;;;4984060;28;20088;-64
2022/05/31 05:25:08;;;;;;;7.38;6.18;;;13.00;99.90;;;;;;5000156;28;20132;-64
2022/05/31 05:27:46;;;;;;;7.88;6.78;;;12.90;99.90;;;;;;5001855;28;20069;-64
2022/05/31 05:33:27;;;;;;;7.72;5.85;;;13.20;99.90;;;;;;5003629;28;20042;-65
2022/05/31 05:36:12;;;;;;;9.90;6.20;;;13.30;99.90;;;;;;5017692;28;20129;-65
2022/05/31 05:38:38;;;;;;;9.82;6.18;;;13.40;99.90;;;;;;5016042;28;20038;-64
2022/05/31 05:41:27;;;;;;;11.50;7.20;;;13.50;99.90;;;;;;5006541;28;20073;-65
2022/05/31 05:44:26;;;;;;;7.78;6.18;;;13.60;99.90;;;;;;5016258;28;20113;-64
2022/05/31 05:46:52;;;;;;;13.00;6.47;;;13.70;99.90;;;;;;4999884;28;20349;-64
2022/05/31 05:49:18;;;;;;;8.02;6.30;;;13.70;99.90;;;;;;5020170;28;20037;-64
2022/05/31 05:51:45;;;;;;;9.60;6.50;;;13.90;99.90;;;;;;5003613;28;20038;-65
2022/05/31 05:54:37;;;;;;;8.52;6.90;;;13.70;99.90;;;;;;4997703;28;20041;-64
2022/05/31 05:57:22;;;;;;;8.90;6.10;;;13.80;99.90;;;;;;5020704;28;20073;-66
2022/05/31 06:00:07;;;;;;;8.88;6.97;;;13.90;99.90;;;;;;5020671;28;20061;-64
2022/05/31 06:03:07;;;;;;;8.48;6.22;;;14.00;99.90;;;;;;5020103;28;20073;-63
2022/05/31 06:05:51;;;;;;;10.50;6.93;;;14.20;99.90;;;;;;5019794;28;20290;-62
2022/05/31 06:08:42;;;;;;;8.68;6.47;;;14.10;99.90;;;;;;5003466;28;20049;-63
2022/05/31 06:11:45;;;;;;;8.07;6.72;;;14.20;99.90;;;;;;5020398;28;20255;-64
2022/05/31 06:14:18;;;;;;;11.43;7.00;;;14.40;99.90;;;;;;5010709;28;20337;-64
2022/05/31 06:16:51;;;;;;;11.35;7.40;;;14.70;99.90;;;;;;5019655;28;20309;-64
2022/05/31 06:19:19;;;;;;;10.40;6.72;;;14.80;99.90;;;;;;5019652;28;20037;-64
2022/05/31 06:21:49;;;;;;;15.27;8.07;;;14.80;99.90;;;;;;5019560;28;20033;-64
2022/05/31 06:24:29;;;;;;;9.05;6.72;;;14.90;99.90;;;;;;5004398;28;20044;-65
2022/05/31 06:27:01;;;;;;;11.80;7.57;;;15.00;99.90;;;;;;5019559;28;20061;-65
2022/05/31 06:29:30;;;;;;;10.73;7.90;;;15.00;99.90;;;;;;5019311;28;20034;-64
2022/05/31 06:31:56;;;;;;;12.48;7.60;;;14.70;99.90;;;;;;5020089;28;20064;-66
2022/05/31 06:34:39;;;;;;;8.77;7.18;;;14.90;99.90;;;;;;5005405;28;20038;-64
2022/05/31 06:37:40;;;;;;;9.65;7.78;;;15.00;99.90;;;;;;4960271;29;20035;-64
2022/05/31 06:40:07;;;;;;;12.00;8.10;;;15.10;99.90;;;;;;4990908;28;20041;-63
2022/05/31 06:42:53;;;;;;;10.90;8.05;;;15.20;99.90;;;;;;5018737;28;20037;-65
2022/05/31 06:45:38;;;;;;;9.65;7.72;;;15.10;99.90;;;;;;5019710;28;20112;-64
2022/05/31 06:48:22;;;;;;;13.02;7.57;;;15.10;99.90;;;;;;5019986;28;20048;-64
2022/05/31 06:51:11;;;;;;;13.70;8.85;;;15.20;99.90;;;;;;4989317;28;20046;-65
2022/05/31 06:57:00;;;;;;;10.38;7.82;;;15.30;99.90;;;;;;5019426;28;20052;-64
2022/05/31 06:59:31;;;;;;;11.32;7.70;;;15.10;99.90;;;;;;5018757;28;20037;-64
2022/05/31 07:02:04;;;;;;;11.43;8.05;;;14.90;99.90;;;;;;5018642;28;20184;-64
2022/05/31 07:04:37;;;;;;;11.93;7.55;;;14.90;99.90;;;;;;5002728;28;20441;-65
2022/05/31 07:07:04;;;;;;;9.45;7.20;;;15.00;99.90;;;;;;5019506;28;20038;-64
2022/05/31 07:09:49;;;;;;;11.25;7.70;;;15.00;99.90;;;;;;5019173;28;20113;-64
2022/05/31 07:12:25;;;;;;;9.27;7.30;;;15.20;99.90;;;;;;5003595;28;20030;-63
2022/05/31 07:15:10;;;;;;;8.07;6.63;;;15.10;99.90;;;;;;5019083;28;20128;-63
2022/05/31 07:18:02;;;;;;;11.77;7.75;;;15.40;99.90;;;;;;5018433;28;20034;-63
2022/05/31 07:20:31;;;;;;;10.48;7.20;;;15.60;99.90;;;;;;5002673;28;20033;-64
2022/05/31 07:22:57;;;;;;;11.35;7.15;;;15.40;99.90;;;;;;5018342;28;20049;-64
2022/05/31 07:25:32;;;;;;;10.80;6.95;;;15.50;99.90;;;;;;5003249;28;20034;-66
2022/05/31 07:28:04;;;;;;;;;;;15.60;99.90;;;;;;5018721;28;20088;-66
2022/05/31 07:30:30;;;;;;;10.75;6.38;;;15.60;99.90;;;;;;5018442;28;19948;-66
2022/05/31 07:32:57;;;;;;;7.72;5.60;;;15.60;99.90;;;;;;4986483;28;20109;-68
2022/05/31 07:35:23;;;;;;;9.38;6.25;;;15.90;99.90;;;;;;5001923;28;20068;-67
2022/05/31 07:37:50;;;;;;;8.55;6.28;;;16.00;99.90;;;;;;5001838;28;20030;-66
2022/05/31 07:40:19;;;;;;;9.45;5.93;;;16.00;99.90;;;;;;5002258;28;20042;-67
2022/05/31 07:42:45;;;;;;;8.65;5.93;;;16.20;99.90;;;;;;5001666;28;20299;-65
2022/05/31 07:45:12;;;;;;;7.95;5.90;;;16.10;99.90;;;;;;5017935;28;20034;-64
2022/05/31 07:47:38;;;;;;;8.50;6.25;;;16.00;99.90;;;;;;5017860;28;20064;-65
2022/05/31 07:50:04;;;;;;;9.43;6.22;;;15.90;99.90;;;;;;5018539;28;20033;-65
2022/05/31 07:52:51;;;;;;;9.65;6.38;;;15.70;99.90;;;;;;5017969;28;20072;-69
2022/05/31 07:55:35;;;;;;;7.68;5.95;;;15.60;99.90;;;;;;5018571;28;20034;-68
2022/05/31 07:58:38;;;;;;;7.05;5.70;;;15.90;99.90;;;;;;5018350;28;20046;-65
2022/05/31 08:01:37;;;;;;;7.68;5.88;;;16.00;99.90;;;;;;4996354;28;20454;-65
2022/05/31 08:04:15;;;;;;;9.45;6.25;;;16.20;99.90;;;;;;4988825;28;20061;-66
2022/05/31 08:06:41;;;;;;;6.70;5.60;;;16.30;99.90;;;;;;5018842;28;20033;-66
2022/05/31 08:09:07;;;;;;;9.13;5.70;;;16.40;99.90;;;;;;5018235;28;20349;-66
2022/05/31 08:11:33;;;;;;;9.32;6.63;;;16.50;99.90;;;;;;5017783;28;20045;-66
2022/05/31 08:14:01;;;;;;;9.32;6.22;;;16.30;99.90;;;;;;5018673;28;20047;-63
2022/05/31 08:16:28;;;;;;;6.07;5.45;;;16.00;99.90;;;;;;5018157;28;20034;-65
2022/05/31 08:18:55;;;;;;;9.25;6.03;;;16.10;99.90;;;;;;5017349;28;20085;-64
2022/05/31 08:21:27;;;;;;;9.10;6.18;;;16.30;99.90;;;;;;5018031;28;20096;-64
2022/05/31 08:23:54;;;;;;;8.77;5.90;;;16.40;99.90;;;;;;5018407;28;20046;-65
2022/05/31 08:26:20;;;;;;;9.13;6.78;;;16.50;99.90;;;;;;5017357;28;20061;-66
2022/05/31 08:28:46;;;;;;;8.85;5.57;;;16.20;99.90;;;;;;5017777;28;20037;-66
2022/05/31 08:31:14;;;;;;;9.10;6.15;;;16.30;99.90;;;;;;5017910;28;20437;-66
2022/05/31 08:33:40;;;;;;;6.80;5.88;;;16.60;99.90;;;;;;5017185;28;20100;-66
2022/05/31 08:36:07;;;;;;;10.00;6.15;;;16.80;99.90;;;;;;5018329;28;20029;-66
2022/05/31 08:38:33;;;;;;;8.13;5.78;;;17.00;99.90;;;;;;5018019;28;20275;-66
2022/05/31 08:41:20;;;;;;;6.90;5.05;;;17.20;99.90;;;;;;5017705;28;20029;-66
2022/05/31 08:43:46;;;;;;;7.00;4.40;;;17.50;99.90;;;;;;5017728;28;20302;-64
2022/05/31 08:46:42;;;;;;;6.05;4.82;;;17.60;99.90;;;;;;5016965;28;20033;-64
2022/05/31 08:51:52;;;;;;;7.45;5.00;;;17.90;99.90;;;;;;5017619;28;20034;-67
2022/05/31 08:52:26;;;;;;;5.97;4.72;;;18.10;99.90;;;;;;5017589;28;20160;-66
2022/05/31 08:57:50;;;;;;;7.05;5.45;;;18.10;99.90;;;;;;5016703;28;20040;-66
2022/05/31 09:00:38;;;;;;;10.88;5.03;;;18.20;99.90;;;;;;5017467;28;20063;-67
2022/05/31 09:03:17;;;;;;;6.35;5.03;;;18.20;99.90;;;;;;5017395;28;20052;-67
2022/05/31 09:06:07;;;;;;;7.00;4.60;;;18.10;99.90;;;;;;5017074;28;20042;-65
2022/05/31 09:09:04;;;;;;;8.27;4.07;;;17.80;99.90;;;;;;5012385;28;20103;-66
2022/05/31 09:11:56;;;;;;;5.03;3.65;;;17.70;99.90;;;;;;5016617;28;20050;-67
2022/05/31 09:14:34;;;;;;;8.18;3.85;;;17.60;99.90;;;;;;5017327;28;20088;-65
2022/05/31 09:17:03;;;;;;;6.60;4.20;;;17.60;99.90;;;;;;5017211;28;20120;-67
2022/05/31 09:19:44;;;;;;;6.07;3.92;;;17.40;99.90;;;;;;5016695;28;20096;-64
2022/05/31 09:22:10;;;;;;;5.35;4.70;;;17.60;99.90;;;;;;5016473;28;20037;-66
2022/05/31 09:24:43;;;;;;;7.05;4.97;;;17.80;99.90;;;;;;5017053;28;20053;-66
2022/05/31 09:27:38;;;;;;;5.75;4.80;;;18.40;99.90;;;;;;5016563;28;20405;-64
2022/05/31 09:30:24;;;;;;;5.25;3.75;;;18.60;99.90;;;;;;5016110;28;20354;-68
2022/05/31 09:33:20;;;;;;;4.95;3.50;;;18.80;99.90;;;;;;5016531;28;20045;-67
2022/05/31 09:35:52;;;;;;;4.60;2.17;;;18.40;99.90;;;;;;5017039;28;20022;-65
2022/05/31 09:38:45;;;;;;;3.30;1.70;;;17.90;99.90;;;;;;5016920;28;20301;-64
2022/05/31 09:41:22;;;;;;;2.90;1.85;;;17.80;99.90;;;;;;5016940;28;20026;-66
2022/05/31 09:43:54;;;;;;;5.00;1.90;;;18.10;99.90;;;;;;5016334;28;20034;-64
2022/05/31 09:46:47;;;;;;;4.80;1.63;;;18.10;99.90;;;;;;5017186;28;20339;-66
2022/05/31 09:49:36;;;;;;;5.50;1.92;;;18.40;99.90;;;;;;5016101;28;20309;-66
2022/05/31 09:52:07;;;;;;;3.47;2.55;;;19.00;99.90;;;;;;4999890;28;20022;-63
2022/05/31 09:58:16;;;;;;;5.22;2.80;;;19.20;99.90;;;;;;5017676;28;20309;-64
2022/05/31 10:01:20;;;;;;;11.80;3.72;;;18.80;99.90;;;;;;4996083;28;20042;-64
2022/05/31 10:03:54;;;;;;;8.63;3.80;;;18.90;99.90;;;;;;5016324;28;20107;-64
2022/05/31 10:06:24;;;;;;;3.07;2.43;;;18.90;99.90;;;;;;4999672;28;20052;-64
2022/05/31 10:08:51;;;;;;;5.18;2.75;;;19.50;99.90;;;;;;5016442;28;20037;-62
2022/05/31 10:11:29;;;;;;;4.80;2.42;;;20.20;99.90;;;;;;5016582;28;20029;-63
2022/05/31 10:13:58;;;;;;;4.50;2.38;;;19.90;99.90;;;;;;5016588;28;20030;-61
2022/05/31 10:16:28;;;;;;;2.45;0.90;;;19.70;99.90;;;;;;5015774;28;20018;-64
2022/05/31 10:18:57;;;;;;;2.83;1.55;;;19.70;99.90;;;;;;5016496;28;20040;-62
2022/05/31 10:21:43;;;;;;;4.82;1.50;;;19.70;99.90;;;;;;5015835;28;20030;-63
2022/05/31 10:24:17;;;;;;;2.63;1.38;;;19.30;99.90;;;;;;5015849;28;20344;-63
2022/05/31 10:27:18;;;;;;;4.25;1.60;;;19.40;99.90;;;;;;5016191;28;20053;-63
2022/05/31 10:30:07;;;;;;;3.10;1.60;;;19.50;99.90;;;;;;5015622;28;20045;-65
2022/05/31 10:33:24;;;;;;;2.88;1.42;;;20.10;99.90;;;;;;5001625;28;20033;-65
2022/05/31 10:36:08;;;;;;;4.25;2.08;;;20.00;99.90;;;;;;5020159;28;20096;-62
2022/05/31 10:38:35;;;;;;;4.32;1.70;;;20.30;99.90;;;;;;5020074;28;20022;-62
2022/05/31 10:41:07;;;;;;;4.55;2.28;;;19.90;99.90;;;;;;5019231;28;20034;-61
2022/05/31 10:43:39;;;;;;;3.80;2.08;;;20.10;99.90;;;;;;5019186;28;20401;-61
2022/05/31 10:46:13;;;;;;;6.75;1.90;;;19.90;99.90;;;;;;5019009;28;20030;-61
2022/05/31 10:48:48;;;;;;;4.15;1.83;;;19.80;99.90;;;;;;5019981;28;20393;-64
2022/05/31 10:51:36;;;;;;;5.40;1.70;;;20.20;99.90;;;;;;5002718;28;20026;-59
2022/05/31 10:54:17;;;;;;;8.60;1.55;;;20.20;99.90;;;;;;5019039;28;20033;-62
2022/05/31 10:57:11;;;;;;;4.30;1.60;;;20.30;99.90;;;;;;5019654;28;20069;-62
2022/05/31 10:59:58;;;;;;;3.33;1.48;;;20.00;99.90;;;;;;5019582;28;20034;-59
2022/05/31 11:02:45;;;;;;;4.82;1.58;;;20.20;99.90;;;;;;5018722;28;20045;-65
2022/05/31 11:05:14;;;;;;;2.20;1.30;;;20.00;99.90;;;;;;5019456;28;20390;-60
2022/05/31 11:13:31;;;;;;;2.85;1.50;;;20.80;99.90;;;;;;5019971;28;20038;-64
2022/05/31 11:16:42;;;;;;;4.23;1.70;;;20.70;99.90;;;;;;5018665;28;20072;-62
2022/05/31 11:19:20;;;;;;;3.47;1.55;;;20.80;99.90;;;;;;5019338;28;20318;-63
2022/05/31 11:22:12;;;;;;;3.38;1.20;;;21.30;99.90;;;;;;5019376;28;20026;-63
2022/05/31 11:24:48;;;;;;;3.08;1.40;;;21.40;99.90;;;;;;5018609;28;20072;-62
2022/05/31 11:27:15;;;;;;;2.50;1.42;;;22.70;97.20;;;;;;5018243;28;20030;-64
2022/05/31 11:29:58;;;;;;;2.15;1.20;;;24.70;94.10;;;;;;5018963;28;20029;-64
2022/05/31 11:32:43;;;;;;;3.88;1.20;;;26.30;90.60;;;;;;5019135;28;20040;-63
2022/05/31 11:35:39;;;;;;;3.42;1.10;;;26.20;82.50;;;;;;5019162;28;20305;-59
2022/05/31 11:38:20;;;;;;;2.28;0.98;;;25.40;81.50;;;;;;5018262;28;20040;-65
2022/05/31 11:41:06;;;;;;;2.17;0.98;;;24.40;81.90;;;;;;5019002;28;20096;-59
2022/05/31 11:44:04;;;;;;;1.92;1.08;;;24.10;81.70;;;;;;5019390;28;20029;-66
2022/05/31 11:46:44;;;;;;;2.90;1.00;;;23.40;82.80;;;;;;4985019;28;20076;-65
2022/05/31 11:49:36;;;;;;;2.13;1.20;;;22.70;84.70;;;;;;5018627;28;20030;-64
2022/05/31 11:52:24;;;;;;;2.75;0.93;;;21.30;88.20;;;;;;5010306;28;20050;-62
2022/05/31 11:55:30;;;;;;;1.98;1.10;;;21.60;89.00;;;;;;5019033;28;20045;-65
2022/05/31 11:58:15;;;;;;;1.10;1.00;;;21.90;86.10;;;;;;5017695;28;20026;-64
2022/05/31 12:01:06;;;;;;;3.22;1.10;;;22.60;85.50;;;;;;5017433;28;20046;-65
2022/05/31 12:03:36;;;;;;;1.33;0.90;;;22.70;82.20;;;;;;4999425;28;20041;-62
2022/05/31 12:06:21;;;;;;;2.50;1.10;;;22.90;80.20;;;;;;5018471;28;20068;-62
2022/05/31 12:09:30;;;;;;;2.17;0.82;;;23.10;80.40;;;;;;5018341;28;20068;-63
2022/05/31 12:12:17;;;;;;;2.60;1.08;;;24.00;79.10;;;;;;5018178;28;20022;-61
2022/05/31 12:14:53;;;;;;;1.40;0.80;;;25.20;75.20;;;;;;5018142;28;20044;-62
2022/05/31 12:17:31;;;;;;;1.67;1.10;;;25.90;71.10;;;;;;5018207;28;20048;-62
2022/05/31 12:20:07;;;;;;;1.30;0.95;;;27.20;70.70;;;;;;5018161;28;20038;-61
2022/05/31 12:22:40;;;;;;;2.20;1.30;;;28.20;63.80;;;;;;5018120;28;20088;-64
2022/05/31 12:25:12;;;;;;;1.67;0.98;;;27.00;64.00;;;;;;5018505;28;20120;-62
2022/05/31 12:27:41;;;;;;;3.25;1.30;;;25.20;69.60;;;;;;5017292;28;20046;-60
2022/05/31 12:30:25;;;;;;;2.10;1.35;;;24.10;70.90;;;;;;5017079;28;20087;-61
2022/05/31 12:32:53;;;;;;;2.00;1.20;;;24.10;70.90;;;;;;5017925;28;20033;-61
2022/05/31 12:35:31;;;;;;;2.30;1.20;;;22.40;73.40;;;;;;5018185;28;20099;-61
2022/05/31 12:38:00;;;;;;;2.35;1.10;;;21.50;76.50;;;;;;5017822;28;20022;-61
2022/05/31 12:40:34;;;;;;;3.13;1.10;;;21.70;78.00;;;;;;5017754;28;20087;-61
2022/05/31 12:43:28;;;;;;;3.60;1.20;;;21.70;77.80;;;;;;5017689;28;20041;-62
2022/05/31 12:45:54;;;;;;;4.00;1.45;;;22.70;76.40;;;;;;5006607;28;20368;-61
2022/05/31 12:48:25;;;;;;;3.38;1.50;;;23.00;74.60;;;;;;5017556;28;20093;-61
2022/05/31 12:51:11;;;;;;;2.47;1.38;;;22.60;76.00;;;;;;5016774;28;20107;-60
2022/05/31 12:53:37;;;;;;;2.03;1.23;;;22.00;76.60;;;;;;5016746;28;20041;-60
2022/05/31 12:56:05;;;;;;;2.08;1.50;;;22.60;75.90;;;;;;5017402;28;20029;-60
2022/05/31 12:58:43;;;;;;;3.70;1.30;;;23.80;72.40;;;;;;5017579;28;20412;-60
2022/05/31 13:01:12;;;;;;;2.20;1.30;;;24.60;71.40;;;;;;5017252;28;20060;-59
2022/05/31 13:03:37;;;;;;;3.05;1.83;;;26.60;67.70;;;;;;5017375;28;20065;-60
2022/05/31 13:06:21;;;;;;;1.95;1.23;;;27.90;63.70;;;;;;5017309;28;20464;-62
2022/05/31 13:08:56;;;;;;;2.25;1.60;;;28.70;61.10;;;;;;5016676;28;20068;-59
2022/05/31 13:19:49;;;;;;;3.95;1.30;;;27.70;59.80;;;;;;5017390;28;19992;-62
2022/05/31 13:22:17;;;;;;;3.45;1.40;;;28.80;59.00;;;;;;5016825;28;20056;-60
2022/05/31 13:24:58;;;;;;;2.72;1.63;;;30.50;56.00;;;;;;5017202;28;20045;-59
2022/05/31 13:27:28;;;;;;;3.03;1.70;;;30.60;54.20;;;;;;5016389;28;20037;-61
2022/05/31 13:30:01;;;;;;;3.85;1.70;;;29.30;55.10;;;;;;5017337;28;20034;-60
2022/05/31 13:32:34;;;;;;;4.07;1.40;;;29.30;56.20;;;;;;5017234;28;20038;-62
2022/05/31 13:35:07;;;;;;;4.00;1.50;;;29.50;55.80;;;;;;5017037;28;20030;-61
2022/05/31 13:37:48;;;;;;;2.63;0.90;;;30.10;54.60;;;;;;5017166;28;20030;-59
2022/05/31 13:40:19;;;;;;;1.35;1.00;;;29.20;51.90;;;;;;5017119;28;20037;-64
2022/05/31 13:42:45;;;;;;;2.20;1.40;;;28.70;52.30;;;;;;5017353;28;20042;-62
2022/05/31 13:45:17;;;;;;;3.17;1.17;;;28.40;52.50;;;;;;5017423;28;20025;-61
2022/05/31 13:47:54;;;;;;;1.60;1.00;;;29.20;52.50;;;;;;5016284;28;20413;-58
2022/05/31 13:50:26;;;;;;;1.48;0.90;;;29.00;53.20;;;;;;5016872;28;20114;-60
2022/05/31 13:52:53;;;;;;;2.13;1.00;;;28.80;53.10;;;;;;5016852;28;20069;-60
2022/05/31 13:55:29;;;;;;;1.95;1.00;;;30.00;51.80;;;;;;5016820;28;20096;-60
2022/05/31 13:57:56;;;;;;;2.03;0.77;;;31.90;50.00;;;;;;5016794;28;20022;-60